sensor_id;sensor_type;location;lat;lon;timestamp;temperature;humidity
65072;DHT22;51663;52.310;17.016;2023-03-09T00:00:51;25.40;25.50
65072;DHT22;51663;52.310;17.016;2023-03-09T00:03:58;25.20;25.40
65072;DHT22;51663;52.310;17.016;2023-03-09T00:07:01;24.60;25.70
65072;DHT22;51663;52.310;17.016;2023-03-09T00:10:04;24.50;26.10
65072;DHT22;51663;52.310;17.016;2023-03-09T00:13:06;24.20;26.20
65072;DHT22;51663;52.310;17.016;2023-03-09T00:19:18;24.00;26.30
65072;DHT22;51663;52.310;17.016;2023-03-09T00:22:23;24.20;26.30
65072;DHT22;51663;52.310;17.016;2023-03-09T00:25:25;24.10;26.50
65072;DHT22;51663;52.310;17.016;2023-03-09T00:28:27;24.50;26.10
65072;DHT22;51663;52.310;17.016;2023-03-09T00:31:29;23.40;26.70
65072;DHT22;51663;52.310;17.016;2023-03-09T00:34:31;23.80;27.30
65072;DHT22;51663;52.310;17.016;2023-03-09T00:37:37;24.90;26.10
65072;DHT22;51663;52.310;17.016;2023-03-09T00:40:39;24.20;26.40
65072;DHT22;51663;52.310;17.016;2023-03-09T00:43:42;23.80;27.00
65072;DHT22;51663;52.310;17.016;2023-03-09T00:46:44;23.60;26.60
65072;DHT22;51663;52.310;17.016;2023-03-09T00:49:46;24.40;26.50
65072;DHT22;51663;52.310;17.016;2023-03-09T00:52:48;25.20;25.60
65072;DHT22;51663;52.310;17.016;2023-03-09T00:55:50;25.00;25.40
65072;DHT22;51663;52.310;17.016;2023-03-09T00:58:53;24.80;25.60
65072;DHT22;51663;52.310;17.016;2023-03-09T01:01:56;25.00;26.20
65072;DHT22;51663;52.310;17.016;2023-03-09T01:04:58;24.90;25.70
65072;DHT22;51663;52.310;17.016;2023-03-09T01:08:00;25.10;25.40
65072;DHT22;51663;52.310;17.016;2023-03-09T01:11:11;25.10;25.30
65072;DHT22;51663;52.310;17.016;2023-03-09T01:14:14;25.10;25.50
65072;DHT22;51663;52.310;17.016;2023-03-09T01:17:16;25.20;25.20
65072;DHT22;51663;52.310;17.016;2023-03-09T01:20:18;24.80;25.40
65072;DHT22;51663;52.310;17.016;2023-03-09T01:23:20;24.70;25.50
65072;DHT22;51663;52.310;17.016;2023-03-09T01:26:22;24.80;25.40
65072;DHT22;51663;52.310;17.016;2023-03-09T01:29:24;24.80;26.10
65072;DHT22;51663;52.310;17.016;2023-03-09T01:32:27;24.70;25.60
65072;DHT22;51663;52.310;17.016;2023-03-09T01:35:29;25.10;25.50
65072;DHT22;51663;52.310;17.016;2023-03-09T01:38:31;24.80;25.80
65072;DHT22;51663;52.310;17.016;2023-03-09T01:41:33;25.20;25.30
65072;DHT22;51663;52.310;17.016;2023-03-09T01:44:36;24.70;25.60
65072;DHT22;51663;52.310;17.016;2023-03-09T01:47:38;24.00;26.20
65072;DHT22;51663;52.310;17.016;2023-03-09T01:50:41;24.20;26.50
65072;DHT22;51663;52.310;17.016;2023-03-09T01:53:44;24.40;25.80
65072;DHT22;51663;52.310;17.016;2023-03-09T01:56:50;24.40;26.20
65072;DHT22;51663;52.310;17.016;2023-03-09T01:59:58;24.10;26.40
65072;DHT22;51663;52.310;17.016;2023-03-09T02:03:12;23.80;26.40
65072;DHT22;51663;52.310;17.016;2023-03-09T02:06:18;23.60;27.00
65072;DHT22;51663;52.310;17.016;2023-03-09T02:12:31;23.20;27.20
65072;DHT22;51663;52.310;17.016;2023-03-09T02:15:34;24.20;26.60
65072;DHT22;51663;52.310;17.016;2023-03-09T02:18:36;24.00;26.50
65072;DHT22;51663;52.310;17.016;2023-03-09T02:21:49;23.90;26.50
65072;DHT22;51663;52.310;17.016;2023-03-09T02:28:07;23.80;26.90
65072;DHT22;51663;52.310;17.016;2023-03-09T02:31:10;23.40;27.00
65072;DHT22;51663;52.310;17.016;2023-03-09T02:34:13;23.10;27.40
65072;DHT22;51663;52.310;17.016;2023-03-09T02:37:28;23.10;27.70
65072;DHT22;51663;52.310;17.016;2023-03-09T02:40:35;23.60;27.50
65072;DHT22;51663;52.310;17.016;2023-03-09T02:43:46;23.90;26.80
65072;DHT22;51663;52.310;17.016;2023-03-09T02:46:49;23.50;26.90
65072;DHT22;51663;52.310;17.016;2023-03-09T02:49:51;24.30;26.60
65072;DHT22;51663;52.310;17.016;2023-03-09T02:52:54;23.90;26.60
65072;DHT22;51663;52.310;17.016;2023-03-09T02:55:56;23.50;27.40
65072;DHT22;51663;52.310;17.016;2023-03-09T02:58:58;23.60;27.10
65072;DHT22;51663;52.310;17.016;2023-03-09T03:02:00;23.60;27.10
65072;DHT22;51663;52.310;17.016;2023-03-09T03:05:03;23.50;27.20
65072;DHT22;51663;52.310;17.016;2023-03-09T03:08:05;23.60;27.20
65072;DHT22;51663;52.310;17.016;2023-03-09T03:11:07;23.00;27.60
65072;DHT22;51663;52.310;17.016;2023-03-09T03:14:09;23.20;27.40
65072;DHT22;51663;52.310;17.016;2023-03-09T03:17:12;22.90;27.60
65072;DHT22;51663;52.310;17.016;2023-03-09T03:20:14;23.00;27.40
65072;DHT22;51663;52.310;17.016;2023-03-09T03:23:16;22.50;27.90
65072;DHT22;51663;52.310;17.016;2023-03-09T03:26:18;22.80;28.20
65072;DHT22;51663;52.310;17.016;2023-03-09T03:29:21;22.80;27.60
65072;DHT22;51663;52.310;17.016;2023-03-09T03:32:23;22.80;27.70
65072;DHT22;51663;52.310;17.016;2023-03-09T03:35:26;23.20;27.80
65072;DHT22;51663;52.310;17.016;2023-03-09T03:38:28;22.40;28.10
65072;DHT22;51663;52.310;17.016;2023-03-09T03:41:31;21.70;29.50
65072;DHT22;51663;52.310;17.016;2023-03-09T03:44:33;21.90;29.00
65072;DHT22;51663;52.310;17.016;2023-03-09T03:47:35;22.40;28.20
65072;DHT22;51663;52.310;17.016;2023-03-09T03:50:37;23.10;27.50
65072;DHT22;51663;52.310;17.016;2023-03-09T03:53:40;22.80;27.40
65072;DHT22;51663;52.310;17.016;2023-03-09T03:56:43;22.20;28.50
65072;DHT22;51663;52.310;17.016;2023-03-09T03:59:45;21.60;28.90
65072;DHT22;51663;52.310;17.016;2023-03-09T04:02:47;21.30;29.50
65072;DHT22;51663;52.310;17.016;2023-03-09T04:05:49;20.50;30.20
65072;DHT22;51663;52.310;17.016;2023-03-09T04:08:51;20.90;30.00
65072;DHT22;51663;52.310;17.016;2023-03-09T04:11:54;21.70;29.10
65072;DHT22;51663;52.310;17.016;2023-03-09T04:14:56;21.00;29.50
65072;DHT22;51663;52.310;17.016;2023-03-09T04:17:58;20.90;30.00
65072;DHT22;51663;52.310;17.016;2023-03-09T04:21:00;20.80;30.00
65072;DHT22;51663;52.310;17.016;2023-03-09T04:24:02;21.40;29.50
65072;DHT22;51663;52.310;17.016;2023-03-09T04:27:05;21.70;28.80
65072;DHT22;51663;52.310;17.016;2023-03-09T04:30:08;21.70;28.90
65072;DHT22;51663;52.310;17.016;2023-03-09T04:33:10;21.00;29.30
65072;DHT22;51663;52.310;17.016;2023-03-09T04:36:13;20.80;30.00
65072;DHT22;51663;52.310;17.016;2023-03-09T04:39:16;21.40;28.90
65072;DHT22;51663;52.310;17.016;2023-03-09T04:42:18;21.20;29.00
65072;DHT22;51663;52.310;17.016;2023-03-09T04:45:20;21.60;28.70
65072;DHT22;51663;52.310;17.016;2023-03-09T04:48:23;21.60;28.90
65072;DHT22;51663;52.310;17.016;2023-03-09T04:51:27;21.00;29.60
65072;DHT22;51663;52.310;17.016;2023-03-09T04:54:31;21.30;29.30
65072;DHT22;51663;52.310;17.016;2023-03-09T04:57:33;22.20;28.50
65072;DHT22;51663;52.310;17.016;2023-03-09T05:00:35;21.60;28.80
65072;DHT22;51663;52.310;17.016;2023-03-09T05:03:37;21.70;28.50
65072;DHT22;51663;52.310;17.016;2023-03-09T05:06:40;22.30;28.00
65072;DHT22;51663;52.310;17.016;2023-03-09T05:09:42;21.80;28.60
65072;DHT22;51663;52.310;17.016;2023-03-09T05:12:45;21.60;28.90
65072;DHT22;51663;52.310;17.016;2023-03-09T05:15:47;21.20;28.90
65072;DHT22;51663;52.310;17.016;2023-03-09T05:18:50;21.60;29.00
65072;DHT22;51663;52.310;17.016;2023-03-09T05:21:52;21.90;28.40
65072;DHT22;51663;52.310;17.016;2023-03-09T05:24:54;22.30;28.30
65072;DHT22;51663;52.310;17.016;2023-03-09T05:27:58;23.10;27.60
65072;DHT22;51663;52.310;17.016;2023-03-09T05:31:00;22.60;27.60
65072;DHT22;51663;52.310;17.016;2023-03-09T05:34:03;21.70;28.80
65072;DHT22;51663;52.310;17.016;2023-03-09T05:37:06;21.70;28.80
65072;DHT22;51663;52.310;17.016;2023-03-09T05:40:12;21.60;28.60
65072;DHT22;51663;52.310;17.016;2023-03-09T05:43:14;21.50;28.80
65072;DHT22;51663;52.310;17.016;2023-03-09T05:46:17;21.50;28.90
65072;DHT22;51663;52.310;17.016;2023-03-09T05:49:19;21.20;29.10
65072;DHT22;51663;52.310;17.016;2023-03-09T05:52:21;21.20;29.20
65072;DHT22;51663;52.310;17.016;2023-03-09T05:55:24;20.90;29.70
65072;DHT22;51663;52.310;17.016;2023-03-09T05:58:26;21.70;29.00
65072;DHT22;51663;52.310;17.016;2023-03-09T06:01:30;21.90;28.40
65072;DHT22;51663;52.310;17.016;2023-03-09T06:04:32;22.10;28.10
65072;DHT22;51663;52.310;17.016;2023-03-09T06:07:35;22.30;28.00
65072;DHT22;51663;52.310;17.016;2023-03-09T06:10:37;21.70;28.10
65072;DHT22;51663;52.310;17.016;2023-03-09T06:13:40;21.20;29.10
65072;DHT22;51663;52.310;17.016;2023-03-09T06:16:42;21.00;29.30
65072;DHT22;51663;52.310;17.016;2023-03-09T06:19:44;20.70;29.50
65072;DHT22;51663;52.310;17.016;2023-03-09T06:22:47;20.30;30.00
65072;DHT22;51663;52.310;17.016;2023-03-09T06:25:52;20.80;29.90
65072;DHT22;51663;52.310;17.016;2023-03-09T06:29:00;21.20;29.10
65072;DHT22;51663;52.310;17.016;2023-03-09T06:32:03;20.90;29.10
65072;DHT22;51663;52.310;17.016;2023-03-09T06:35:05;20.90;29.40
65072;DHT22;51663;52.310;17.016;2023-03-09T06:38:08;20.30;29.90
65072;DHT22;51663;52.310;17.016;2023-03-09T06:41:10;21.40;29.10
65072;DHT22;51663;52.310;17.016;2023-03-09T06:44:14;20.80;29.40
65072;DHT22;51663;52.310;17.016;2023-03-09T06:47:16;20.50;29.60
65072;DHT22;51663;52.310;17.016;2023-03-09T06:50:19;20.30;29.90
65072;DHT22;51663;52.310;17.016;2023-03-09T06:53:21;20.40;30.00
65072;DHT22;51663;52.310;17.016;2023-03-09T06:56:23;20.20;30.00
65072;DHT22;51663;52.310;17.016;2023-03-09T06:59:28;20.80;29.40
65072;DHT22;51663;52.310;17.016;2023-03-09T07:02:31;20.90;29.00
65072;DHT22;51663;52.310;17.016;2023-03-09T07:05:33;20.60;29.40
65072;DHT22;51663;52.310;17.016;2023-03-09T07:08:35;20.00;30.40
65072;DHT22;51663;52.310;17.016;2023-03-09T07:11:37;21.10;29.30
65072;DHT22;51663;52.310;17.016;2023-03-09T07:14:40;20.80;29.30
65072;DHT22;51663;52.310;17.016;2023-03-09T07:17:42;20.70;29.50
65072;DHT22;51663;52.310;17.016;2023-03-09T07:20:44;20.90;29.10
65072;DHT22;51663;52.310;17.016;2023-03-09T07:23:46;21.20;29.00
65072;DHT22;51663;52.310;17.016;2023-03-09T07:26:49;20.70;29.40
65072;DHT22;51663;52.310;17.016;2023-03-09T07:29:51;20.80;29.60
65072;DHT22;51663;52.310;17.016;2023-03-09T07:32:55;20.80;29.20
65072;DHT22;51663;52.310;17.016;2023-03-09T07:35:57;21.00;29.30
65072;DHT22;51663;52.310;17.016;2023-03-09T07:38:59;20.50;29.70
65072;DHT22;51663;52.310;17.016;2023-03-09T07:42:02;20.70;29.40
65072;DHT22;51663;52.310;17.016;2023-03-09T07:45:06;20.60;29.90
65072;DHT22;51663;52.310;17.016;2023-03-09T07:48:09;20.20;30.00
65072;DHT22;51663;52.310;17.016;2023-03-09T07:51:13;20.60;30.00
65072;DHT22;51663;52.310;17.016;2023-03-09T07:54:15;20.10;30.50
65072;DHT22;51663;52.310;17.016;2023-03-09T07:57:18;19.50;31.90
65072;DHT22;51663;52.310;17.016;2023-03-09T08:00:21;19.60;31.20
65072;DHT22;51663;52.310;17.016;2023-03-09T08:03:25;19.80;31.40
65072;DHT22;51663;52.310;17.016;2023-03-09T08:06:27;19.80;31.30
65072;DHT22;51663;52.310;17.016;2023-03-09T08:09:29;20.30;30.50
65072;DHT22;51663;52.310;17.016;2023-03-09T08:12:32;21.10;29.60
65072;DHT22;51663;52.310;17.016;2023-03-09T08:15:34;21.30;29.60
65072;DHT22;51663;52.310;17.016;2023-03-09T08:18:38;21.50;29.10
65072;DHT22;51663;52.310;17.016;2023-03-09T08:21:40;21.90;28.40
65072;DHT22;51663;52.310;17.016;2023-03-09T08:24:42;21.50;29.10
65072;DHT22;51663;52.310;17.016;2023-03-09T08:27:45;21.70;28.70
65072;DHT22;51663;52.310;17.016;2023-03-09T08:30:49;21.60;29.20
65072;DHT22;51663;52.310;17.016;2023-03-09T08:33:51;21.50;29.00
65072;DHT22;51663;52.310;17.016;2023-03-09T08:36:56;21.80;28.60
65072;DHT22;51663;52.310;17.016;2023-03-09T08:39:58;21.70;29.00
65072;DHT22;51663;52.310;17.016;2023-03-09T08:43:01;22.30;28.50
65072;DHT22;51663;52.310;17.016;2023-03-09T08:46:04;21.00;29.20
65072;DHT22;51663;52.310;17.016;2023-03-09T08:49:06;21.10;29.40
65072;DHT22;51663;52.310;17.016;2023-03-09T08:52:08;21.30;29.40
65072;DHT22;51663;52.310;17.016;2023-03-09T08:55:11;21.30;29.50
65072;DHT22;51663;52.310;17.016;2023-03-09T08:58:13;21.00;29.60
65072;DHT22;51663;52.310;17.016;2023-03-09T09:01:15;21.30;29.40
65072;DHT22;51663;52.310;17.016;2023-03-09T09:04:18;21.40;29.40
65072;DHT22;51663;52.310;17.016;2023-03-09T09:07:20;21.50;29.10
65072;DHT22;51663;52.310;17.016;2023-03-09T09:10:23;21.40;29.10
65072;DHT22;51663;52.310;17.016;2023-03-09T09:13:37;21.40;29.20
65072;DHT22;51663;52.310;17.016;2023-03-09T09:16:40;21.40;29.50
65072;DHT22;51663;52.310;17.016;2023-03-09T09:19:42;22.00;28.90
65072;DHT22;51663;52.310;17.016;2023-03-09T09:22:44;21.70;29.10
65072;DHT22;51663;52.310;17.016;2023-03-09T09:25:59;22.30;28.40
65072;DHT22;51663;52.310;17.016;2023-03-09T09:29:02;22.60;28.10
65072;DHT22;51663;52.310;17.016;2023-03-09T09:32:05;22.10;28.40
65072;DHT22;51663;52.310;17.016;2023-03-09T09:35:08;21.90;28.80
65072;DHT22;51663;52.310;17.016;2023-03-09T09:38:12;22.10;28.30
65072;DHT22;51663;52.310;17.016;2023-03-09T09:41:19;21.70;28.80
65072;DHT22;51663;52.310;17.016;2023-03-09T09:47:28;21.80;29.00
65072;DHT22;51663;52.310;17.016;2023-03-09T09:54:07;22.20;28.90
65072;DHT22;51663;52.310;17.016;2023-03-09T09:57:55;23.30;27.80
65072;DHT22;51663;52.310;17.016;2023-03-09T10:00:48;23.00;27.70
65072;DHT22;51663;52.310;17.016;2023-03-09T10:03:54;23.30;27.30
65072;DHT22;51663;52.310;17.016;2023-03-09T10:07:04;23.30;27.40
65072;DHT22;51663;52.310;17.016;2023-03-09T10:10:22;23.10;27.80
65072;DHT22;51663;52.310;17.016;2023-03-09T10:13:37;22.80;27.70
65072;DHT22;51663;52.310;17.016;2023-03-09T10:16:47;22.50;28.40
65072;DHT22;51663;52.310;17.016;2023-03-09T10:19:51;22.20;28.70
65072;DHT22;51663;52.310;17.016;2023-03-09T10:22:55;22.60;28.00
65072;DHT22;51663;52.310;17.016;2023-03-09T10:26:17;23.10;27.50
65072;DHT22;51663;52.310;17.016;2023-03-09T10:30:00;22.00;28.60
65072;DHT22;51663;52.310;17.016;2023-03-09T10:33:17;22.10;28.80
65072;DHT22;51663;52.310;17.016;2023-03-09T10:36:31;23.60;27.60
65072;DHT22;51663;52.310;17.016;2023-03-09T10:39:40;23.80;26.70
65072;DHT22;51663;52.310;17.016;2023-03-09T10:42:43;23.20;26.80
65072;DHT22;51663;52.310;17.016;2023-03-09T10:45:45;22.20;27.50
65072;DHT22;51663;52.310;17.016;2023-03-09T10:48:50;22.00;28.20
65072;DHT22;51663;52.310;17.016;2023-03-09T10:52:17;22.90;27.60
65072;DHT22;51663;52.310;17.016;2023-03-09T10:55:29;22.70;27.20
65072;DHT22;51663;52.310;17.016;2023-03-09T10:58:33;22.80;26.70
65072;DHT22;51663;52.310;17.016;2023-03-09T11:01:37;22.80;26.90
65072;DHT22;51663;52.310;17.016;2023-03-09T11:04:40;22.00;27.40
65072;DHT22;51663;52.310;17.016;2023-03-09T11:07:49;22.00;28.00
65072;DHT22;51663;52.310;17.016;2023-03-09T11:11:07;22.00;27.70
65072;DHT22;51663;52.310;17.016;2023-03-09T11:14:29;22.50;27.30
65072;DHT22;51663;52.310;17.016;2023-03-09T11:20:39;22.60;27.20
65072;DHT22;51663;52.310;17.016;2023-03-09T11:23:45;22.20;27.50
65072;DHT22;51663;52.310;17.016;2023-03-09T11:27:18;22.60;27.20
65072;DHT22;51663;52.310;17.016;2023-03-09T11:30:25;23.00;27.20
65072;DHT22;51663;52.310;17.016;2023-03-09T11:33:30;22.70;26.80
65072;DHT22;51663;52.310;17.016;2023-03-09T11:36:37;21.90;27.40
65072;DHT22;51663;52.310;17.016;2023-03-09T11:40:00;23.10;26.90
65072;DHT22;51663;52.310;17.016;2023-03-09T11:43:09;23.50;26.10
65072;DHT22;51663;52.310;17.016;2023-03-09T11:46:15;23.00;26.20
65072;DHT22;51663;52.310;17.016;2023-03-09T11:49:23;22.80;26.90
65072;DHT22;51663;52.310;17.016;2023-03-09T11:52:35;23.00;26.20
65072;DHT22;51663;52.310;17.016;2023-03-09T11:55:44;21.60;28.30
65072;DHT22;51663;52.310;17.016;2023-03-09T12:02:18;21.50;27.90
65072;DHT22;51663;52.310;17.016;2023-03-09T12:05:23;21.60;28.20
65072;DHT22;51663;52.310;17.016;2023-03-09T12:08:45;21.80;27.80
65072;DHT22;51663;52.310;17.016;2023-03-09T12:11:52;21.30;27.80
65072;DHT22;51663;52.310;17.016;2023-03-09T12:15:11;21.30;28.10
65072;DHT22;51663;52.310;17.016;2023-03-09T12:18:21;22.00;28.10
65072;DHT22;51663;52.310;17.016;2023-03-09T12:21:40;22.30;27.40
65072;DHT22;51663;52.310;17.016;2023-03-09T12:25:02;22.20;27.20
65072;DHT22;51663;52.310;17.016;2023-03-09T12:28:18;21.90;27.20
65072;DHT22;51663;52.310;17.016;2023-03-09T12:31:31;22.70;27.10
65072;DHT22;51663;52.310;17.016;2023-03-09T12:34:42;22.90;26.50
65072;DHT22;51663;52.310;17.016;2023-03-09T12:37:56;22.10;26.70
65072;DHT22;51663;52.310;17.016;2023-03-09T12:41:24;21.80;27.50
65072;DHT22;51663;52.310;17.016;2023-03-09T12:48:04;22.90;26.20
65072;DHT22;51663;52.310;17.016;2023-03-09T12:51:28;23.40;26.60
65072;DHT22;51663;52.310;17.016;2023-03-09T12:54:33;23.00;26.40
65072;DHT22;51663;52.310;17.016;2023-03-09T12:57:35;22.90;26.30
65072;DHT22;51663;52.310;17.016;2023-03-09T13:00:57;23.60;25.90
65072;DHT22;51663;52.310;17.016;2023-03-09T13:07:18;23.60;25.90
65072;DHT22;51663;52.310;17.016;2023-03-09T13:10:34;23.60;25.90
65072;DHT22;51663;52.310;17.016;2023-03-09T13:13:59;23.30;25.80
65072;DHT22;51663;52.310;17.016;2023-03-09T13:17:32;23.00;26.10
65072;DHT22;51663;52.310;17.016;2023-03-09T13:20:36;23.60;25.70
65072;DHT22;51663;52.310;17.016;2023-03-09T13:23:39;23.80;25.60
65072;DHT22;51663;52.310;17.016;2023-03-09T13:26:42;23.20;25.50
65072;DHT22;51663;52.310;17.016;2023-03-09T13:33:03;22.90;26.40
65072;DHT22;51663;52.310;17.016;2023-03-09T13:39:21;23.00;26.20
65072;DHT22;51663;52.310;17.016;2023-03-09T13:42:24;22.80;26.50
65072;DHT22;51663;52.310;17.016;2023-03-09T13:45:29;23.10;26.00
65072;DHT22;51663;52.310;17.016;2023-03-09T13:48:39;23.20;26.00
65072;DHT22;51663;52.310;17.016;2023-03-09T13:51:56;23.80;25.60
65072;DHT22;51663;52.310;17.016;2023-03-09T13:55:01;23.20;26.00
65072;DHT22;51663;52.310;17.016;2023-03-09T13:58:16;23.90;25.40
65072;DHT22;51663;52.310;17.016;2023-03-09T14:01:23;24.10;25.30
65072;DHT22;51663;52.310;17.016;2023-03-09T14:04:26;23.70;25.60
65072;DHT22;51663;52.310;17.016;2023-03-09T14:07:37;23.30;25.70
65072;DHT22;51663;52.310;17.016;2023-03-09T14:10:50;22.60;26.60
65072;DHT22;51663;52.310;17.016;2023-03-09T14:17:17;21.90;28.20
65072;DHT22;51663;52.310;17.016;2023-03-09T14:20:22;22.70;26.90
65072;DHT22;51663;52.310;17.016;2023-03-09T14:23:41;22.50;27.20
65072;DHT22;51663;52.310;17.016;2023-03-09T14:26:44;22.90;27.20
65072;DHT22;51663;52.310;17.016;2023-03-09T14:29:47;23.20;26.80
65072;DHT22;51663;52.310;17.016;2023-03-09T14:33:02;22.90;26.70
65072;DHT22;51663;52.310;17.016;2023-03-09T14:36:07;22.30;27.30
65072;DHT22;51663;52.310;17.016;2023-03-09T14:39:28;21.80;27.80
65072;DHT22;51663;52.310;17.016;2023-03-09T14:42:33;22.50;27.60
65072;DHT22;51663;52.310;17.016;2023-03-09T14:45:36;22.80;26.90
65072;DHT22;51663;52.310;17.016;2023-03-09T14:48:38;23.10;26.60
65072;DHT22;51663;52.310;17.016;2023-03-09T14:51:41;22.60;27.20
65072;DHT22;51663;52.310;17.016;2023-03-09T14:54:44;22.30;27.30
65072;DHT22;51663;52.310;17.016;2023-03-09T14:57:46;22.80;27.40
65072;DHT22;51663;52.310;17.016;2023-03-09T15:00:48;22.40;27.60
65072;DHT22;51663;52.310;17.016;2023-03-09T15:03:52;22.80;27.50
65072;DHT22;51663;52.310;17.016;2023-03-09T15:06:55;23.30;26.60
65072;DHT22;51663;52.310;17.016;2023-03-09T15:09:57;23.40;26.60
65072;DHT22;51663;52.310;17.016;2023-03-09T15:13:00;23.40;26.30
65072;DHT22;51663;52.310;17.016;2023-03-09T15:16:02;23.50;26.80
65072;DHT22;51663;52.310;17.016;2023-03-09T15:19:05;23.50;26.40
65072;DHT22;51663;52.310;17.016;2023-03-09T15:22:12;23.90;25.70
65072;DHT22;51663;52.310;17.016;2023-03-09T15:25:17;24.10;25.80
65072;DHT22;51663;52.310;17.016;2023-03-09T15:28:19;24.50;24.90
65072;DHT22;51663;52.310;17.016;2023-03-09T15:31:21;23.90;25.80
65072;DHT22;51663;52.310;17.016;2023-03-09T15:34:23;24.40;25.50
65072;DHT22;51663;52.310;17.016;2023-03-09T15:37:26;23.70;26.30
65072;DHT22;51663;52.310;17.016;2023-03-09T15:40:28;24.00;25.70
65072;DHT22;51663;52.310;17.016;2023-03-09T15:43:30;23.70;26.00
65072;DHT22;51663;52.310;17.016;2023-03-09T15:46:34;23.90;26.00
65072;DHT22;51663;52.310;17.016;2023-03-09T15:49:36;24.30;25.70
65072;DHT22;51663;52.310;17.016;2023-03-09T15:52:38;24.10;25.80
65072;DHT22;51663;52.310;17.016;2023-03-09T15:55:41;23.70;25.70
65072;DHT22;51663;52.310;17.016;2023-03-09T15:58:46;23.70;26.10
65072;DHT22;51663;52.310;17.016;2023-03-09T16:01:48;23.20;26.60
65072;DHT22;51663;52.310;17.016;2023-03-09T16:04:53;23.60;26.30
65072;DHT22;51663;52.310;17.016;2023-03-09T16:07:55;23.80;26.30
65072;DHT22;51663;52.310;17.016;2023-03-09T16:10:58;23.60;26.30
65072;DHT22;51663;52.310;17.016;2023-03-09T16:14:00;23.70;26.10
65072;DHT22;51663;52.310;17.016;2023-03-09T16:17:03;23.50;26.20
65072;DHT22;51663;52.310;17.016;2023-03-09T16:20:06;23.90;25.90
65072;DHT22;51663;52.310;17.016;2023-03-09T16:23:16;24.30;25.70
65072;DHT22;51663;52.310;17.016;2023-03-09T16:26:20;24.30;25.80
65072;DHT22;51663;52.310;17.016;2023-03-09T16:29:23;24.10;25.70
65072;DHT22;51663;52.310;17.016;2023-03-09T16:32:28;24.30;25.80
65072;DHT22;51663;52.310;17.016;2023-03-09T16:35:31;24.70;25.30
65072;DHT22;51663;52.310;17.016;2023-03-09T16:38:33;24.40;25.30
65072;DHT22;51663;52.310;17.016;2023-03-09T16:41:35;24.60;25.30
65072;DHT22;51663;52.310;17.016;2023-03-09T16:44:37;24.30;25.50
65072;DHT22;51663;52.310;17.016;2023-03-09T16:47:40;24.30;25.60
65072;DHT22;51663;52.310;17.016;2023-03-09T16:50:43;25.20;24.90
65072;DHT22;51663;52.310;17.016;2023-03-09T16:53:45;25.10;24.60
65072;DHT22;51663;52.310;17.016;2023-03-09T16:56:48;24.30;25.20
65072;DHT22;51663;52.310;17.016;2023-03-09T16:59:54;24.30;25.20
65072;DHT22;51663;52.310;17.016;2023-03-09T17:02:57;24.50;25.40
65072;DHT22;51663;52.310;17.016;2023-03-09T17:05:59;24.90;24.90
65072;DHT22;51663;52.310;17.016;2023-03-09T17:09:02;25.20;24.70
65072;DHT22;51663;52.310;17.016;2023-03-09T17:12:06;25.30;24.50
65072;DHT22;51663;52.310;17.016;2023-03-09T17:15:09;25.10;24.80
65072;DHT22;51663;52.310;17.016;2023-03-09T17:18:11;25.40;24.80
65072;DHT22;51663;52.310;17.016;2023-03-09T17:21:14;25.30;24.60
65072;DHT22;51663;52.310;17.016;2023-03-09T17:24:16;24.80;24.70
65072;DHT22;51663;52.310;17.016;2023-03-09T17:27:19;25.20;24.70
65072;DHT22;51663;52.310;17.016;2023-03-09T17:30:24;25.00;24.90
65072;DHT22;51663;52.310;17.016;2023-03-09T17:33:46;24.50;25.30
65072;DHT22;51663;52.310;17.016;2023-03-09T17:36:49;24.10;25.50
65072;DHT22;51663;52.310;17.016;2023-03-09T17:39:51;24.80;25.50
65072;DHT22;51663;52.310;17.016;2023-03-09T17:42:54;24.90;25.40
65072;DHT22;51663;52.310;17.016;2023-03-09T17:45:58;24.70;25.20
65072;DHT22;51663;52.310;17.016;2023-03-09T17:49:00;24.60;25.10
65072;DHT22;51663;52.310;17.016;2023-03-09T17:52:04;24.80;25.30
65072;DHT22;51663;52.310;17.016;2023-03-09T17:55:08;25.00;25.00
65072;DHT22;51663;52.310;17.016;2023-03-09T17:58:10;25.00;25.00
65072;DHT22;51663;52.310;17.016;2023-03-09T18:01:23;25.30;24.60
65072;DHT22;51663;52.310;17.016;2023-03-09T18:04:29;24.70;24.70
65072;DHT22;51663;52.310;17.016;2023-03-09T18:07:32;24.90;24.80
65072;DHT22;51663;52.310;17.016;2023-03-09T18:10:35;24.60;25.00
65072;DHT22;51663;52.310;17.016;2023-03-09T18:13:38;24.80;25.00
65072;DHT22;51663;52.310;17.016;2023-03-09T18:16:41;24.70;24.50
65072;DHT22;51663;52.310;17.016;2023-03-09T18:19:44;25.10;24.60
65072;DHT22;51663;52.310;17.016;2023-03-09T18:22:47;25.50;24.10
65072;DHT22;51663;52.310;17.016;2023-03-09T18:25:49;25.20;24.50
65072;DHT22;51663;52.310;17.016;2023-03-09T18:28:51;25.00;24.40
65072;DHT22;51663;52.310;17.016;2023-03-09T18:31:53;24.90;24.60
65072;DHT22;51663;52.310;17.016;2023-03-09T18:34:56;25.20;24.20
65072;DHT22;51663;52.310;17.016;2023-03-09T18:37:58;24.90;24.50
65072;DHT22;51663;52.310;17.016;2023-03-09T18:41:01;25.10;24.20
65072;DHT22;51663;52.310;17.016;2023-03-09T18:44:03;25.10;24.10
65072;DHT22;51663;52.310;17.016;2023-03-09T18:47:07;25.80;23.90
65072;DHT22;51663;52.310;17.016;2023-03-09T18:50:10;25.10;24.00
65072;DHT22;51663;52.310;17.016;2023-03-09T18:53:13;25.30;24.00
65072;DHT22;51663;52.310;17.016;2023-03-09T18:56:17;25.40;24.00
65072;DHT22;51663;52.310;17.016;2023-03-09T18:59:19;25.50;23.80
65072;DHT22;51663;52.310;17.016;2023-03-09T19:02:22;25.50;23.90
65072;DHT22;51663;52.310;17.016;2023-03-09T19:05:25;25.40;24.00
65072;DHT22;51663;52.310;17.016;2023-03-09T19:08:27;25.70;23.80
65072;DHT22;51663;52.310;17.016;2023-03-09T19:11:30;25.70;23.70
65072;DHT22;51663;52.310;17.016;2023-03-09T19:14:34;25.70;23.70
65072;DHT22;51663;52.310;17.016;2023-03-09T19:17:36;26.00;23.50
65072;DHT22;51663;52.310;17.016;2023-03-09T19:20:42;25.90;23.60
65072;DHT22;51663;52.310;17.016;2023-03-09T19:23:52;25.80;23.50
65072;DHT22;51663;52.310;17.016;2023-03-09T19:26:55;25.50;23.70
65072;DHT22;51663;52.310;17.016;2023-03-09T19:29:57;25.50;23.60
65072;DHT22;51663;52.310;17.016;2023-03-09T19:32:59;25.40;24.00
65072;DHT22;51663;52.310;17.016;2023-03-09T19:36:02;25.80;23.90
65072;DHT22;51663;52.310;17.016;2023-03-09T19:39:04;25.80;23.60
65072;DHT22;51663;52.310;17.016;2023-03-09T19:42:07;25.90;23.60
65072;DHT22;51663;52.310;17.016;2023-03-09T19:45:10;25.70;23.70
65072;DHT22;51663;52.310;17.016;2023-03-09T19:48:13;25.80;23.80